sensor_id;sensor_type;location;lat;lon;timestamp;pressure;altitude;pressure_sealevel;temperature;humidity
10462;BME280;5278;42.656;23.374;2022-09-17T00:02:26;93832.25;;;23.76;72.25
10462;BME280;5278;42.656;23.374;2022-09-17T00:04:54;93784.94;;;23.83;71.46
10462;BME280;5278;42.656;23.374;2022-09-17T00:07:22;93815.00;;;23.73;72.33
10462;BME280;5278;42.656;23.374;2022-09-17T00:09:49;93813.16;;;23.69;71.87
10462;BME280;5278;42.656;23.374;2022-09-17T00:12:16;93794.28;;;23.75;70.43
10462;BME280;5278;42.656;23.374;2022-09-17T00:14:43;93808.00;;;23.87;70.66
10462;BME280;5278;42.656;23.374;2022-09-17T00:17:10;93780.78;;;24.06;69.95
10462;BME280;5278;42.656;23.374;2022-09-17T00:19:38;93789.91;;;23.94;70.07
10462;BME280;5278;42.656;23.374;2022-09-17T00:22:05;93788.75;;;24.06;69.69
10462;BME280;5278;42.656;23.374;2022-09-17T00:24:32;93770.25;;;23.95;69.05
10462;BME280;5278;42.656;23.374;2022-09-17T00:26:58;93774.06;;;23.84;69.78
10462;BME280;5278;42.656;23.374;2022-09-17T00:29:25;93788.69;;;23.77;69.86
10462;BME280;5278;42.656;23.374;2022-09-17T00:31:52;93772.41;;;23.54;70.62
10462;BME280;5278;42.656;23.374;2022-09-17T00:34:19;93779.81;;;23.08;72.64
10462;BME280;5278;42.656;23.374;2022-09-17T00:36:48;93790.34;;;23.18;72.93
10462;BME280;5278;42.656;23.374;2022-09-17T00:39:15;93786.53;;;23.40;71.97
10462;BME280;5278;42.656;23.374;2022-09-17T00:41:43;93794.50;;;23.40;72.09
10462;BME280;5278;42.656;23.374;2022-09-17T00:44:39;93801.88;;;23.48;71.59
10462;BME280;5278;42.656;23.374;2022-09-17T00:47:11;93788.06;;;23.56;70.91
10462;BME280;5278;42.656;23.374;2022-09-17T00:49:40;93805.78;;;23.66;71.78
10462;BME280;5278;42.656;23.374;2022-09-17T00:52:13;93802.78;;;23.72;71.36
10462;BME280;5278;42.656;23.374;2022-09-17T00:54:45;93789.94;;;23.89;70.44
10462;BME280;5278;42.656;23.374;2022-09-17T00:57:14;93796.91;;;23.80;70.55
10462;BME280;5278;42.656;23.374;2022-09-17T00:59:42;93806.44;;;23.81;70.23
10462;BME280;5278;42.656;23.374;2022-09-17T01:02:09;93820.75;;;23.85;70.29
10462;BME280;5278;42.656;23.374;2022-09-17T01:04:37;93807.72;;;23.50;70.48
10462;BME280;5278;42.656;23.374;2022-09-17T01:07:09;93834.34;;;23.25;72.40
10462;BME280;5278;42.656;23.374;2022-09-17T01:09:43;93823.38;;;23.46;72.24
10462;BME280;5278;42.656;23.374;2022-09-17T01:12:30;93800.00;;;23.53;71.27
10462;BME280;5278;42.656;23.374;2022-09-17T01:15:09;93791.47;;;23.56;72.57
10462;BME280;5278;42.656;23.374;2022-09-17T01:17:44;93784.56;;;23.66;71.65
10462;BME280;5278;42.656;23.374;2022-09-17T01:29:21;93806.53;;;23.12;73.54
10462;BME280;5278;42.656;23.374;2022-09-17T01:32:03;93782.31;;;22.74;73.78
10462;BME280;5278;42.656;23.374;2022-09-17T01:34:40;93788.16;;;22.66;75.42
10462;BME280;5278;42.656;23.374;2022-09-17T01:37:13;93786.56;;;22.76;74.60
10462;BME280;5278;42.656;23.374;2022-09-17T01:39:44;93797.13;;;22.91;74.31
10462;BME280;5278;42.656;23.374;2022-09-17T01:42:18;93797.22;;;23.25;73.30
10462;BME280;5278;42.656;23.374;2022-09-17T01:44:54;93784.38;;;23.42;72.10
10462;BME280;5278;42.656;23.374;2022-09-17T01:47:30;93767.47;;;23.33;72.09
10462;BME280;5278;42.656;23.374;2022-09-17T01:50:02;93765.59;;;23.38;71.63
10462;BME280;5278;42.656;23.374;2022-09-17T01:52:31;93760.31;;;22.79;74.00
10462;BME280;5278;42.656;23.374;2022-09-17T01:55:03;93738.34;;;22.79;74.63
10462;BME280;5278;42.656;23.374;2022-09-17T01:57:35;93738.91;;;22.70;74.52
10462;BME280;5278;42.656;23.374;2022-09-17T02:00:08;93735.50;;;22.50;74.88
10462;BME280;5278;42.656;23.374;2022-09-17T02:02:39;93766.25;;;22.41;76.05
10462;BME280;5278;42.656;23.374;2022-09-17T02:05:15;93765.41;;;22.70;74.74
10462;BME280;5278;42.656;23.374;2022-09-17T02:07:46;93765.13;;;22.52;75.57
10462;BME280;5278;42.656;23.374;2022-09-17T02:10:19;93748.13;;;22.68;74.94
10462;BME280;5278;42.656;23.374;2022-09-17T02:12:51;93722.72;;;22.72;74.76
10462;BME280;5278;42.656;23.374;2022-09-17T02:15:23;93724.22;;;22.93;73.92
10462;BME280;5278;42.656;23.374;2022-09-17T02:17:57;93717.19;;;23.17;72.58
10462;BME280;5278;42.656;23.374;2022-09-17T02:20:34;93683.66;;;22.98;71.94
10462;BME280;5278;42.656;23.374;2022-09-17T02:23:07;93664.53;;;22.47;75.09
10462;BME280;5278;42.656;23.374;2022-09-17T02:25:40;93679.66;;;22.46;76.39
10462;BME280;5278;42.656;23.374;2022-09-17T02:28:13;93666.81;;;22.73;75.31
10462;BME280;5278;42.656;23.374;2022-09-17T02:30:41;93612.53;;;22.12;74.08
10462;BME280;5278;42.656;23.374;2022-09-17T02:33:13;93619.56;;;21.32;79.39
10462;BME280;5278;42.656;23.374;2022-09-17T02:35:41;93622.22;;;21.27;79.62
10462;BME280;5278;42.656;23.374;2022-09-17T02:38:11;93624.06;;;21.31;81.02
10462;BME280;5278;42.656;23.374;2022-09-17T02:40:45;93662.91;;;21.66;79.24
10462;BME280;5278;42.656;23.374;2022-09-17T02:43:20;93666.56;;;21.85;78.01
10462;BME280;5278;42.656;23.374;2022-09-17T02:46:00;93654.69;;;21.63;77.50
10462;BME280;5278;42.656;23.374;2022-09-17T02:48:55;93649.16;;;21.49;79.30
10462;BME280;5278;42.656;23.374;2022-09-17T02:51:32;93661.78;;;21.98;78.65
10462;BME280;5278;42.656;23.374;2022-09-17T02:54:07;93684.19;;;22.36;77.76
10462;BME280;5278;42.656;23.374;2022-09-17T02:56:43;93678.53;;;22.57;75.78
10462;BME280;5278;42.656;23.374;2022-09-17T02:59:18;93680.22;;;22.92;73.81
10462;BME280;5278;42.656;23.374;2022-09-17T03:01:54;93663.75;;;23.05;73.49
10462;BME280;5278;42.656;23.374;2022-09-17T03:04:27;93657.00;;;23.18;72.46
10462;BME280;5278;42.656;23.374;2022-09-17T03:06:55;93644.94;;;23.41;71.37
10462;BME280;5278;42.656;23.374;2022-09-17T03:09:24;93643.03;;;23.46;71.30
10462;BME280;5278;42.656;23.374;2022-09-17T03:11:50;93625.13;;;23.62;69.86
10462;BME280;5278;42.656;23.374;2022-09-17T03:14:17;93619.81;;;23.62;69.42
10462;BME280;5278;42.656;23.374;2022-09-17T03:16:45;93639.00;;;23.54;70.09
10462;BME280;5278;42.656;23.374;2022-09-17T03:19:12;93634.84;;;23.38;69.92
10462;BME280;5278;42.656;23.374;2022-09-17T03:21:40;93645.97;;;23.45;70.67
10462;BME280;5278;42.656;23.374;2022-09-17T03:24:08;93641.59;;;23.59;69.61
10462;BME280;5278;42.656;23.374;2022-09-17T03:26:37;93639.94;;;23.68;69.21
10462;BME280;5278;42.656;23.374;2022-09-17T03:29:04;93640.75;;;23.64;69.29
10462;BME280;5278;42.656;23.374;2022-09-17T03:31:31;93630.16;;;23.64;69.04
10462;BME280;5278;42.656;23.374;2022-09-17T03:33:58;93634.03;;;23.42;70.81
10462;BME280;5278;42.656;23.374;2022-09-17T03:36:25;93635.88;;;23.42;70.54
10462;BME280;5278;42.656;23.374;2022-09-17T03:38:54;93614.59;;;23.52;69.14
10462;BME280;5278;42.656;23.374;2022-09-17T03:41:23;93641.19;;;23.42;69.85
10462;BME280;5278;42.656;23.374;2022-09-17T03:43:50;93606.69;;;23.42;69.59
10462;BME280;5278;42.656;23.374;2022-09-17T03:46:18;93613.09;;;23.46;69.25
10462;BME280;5278;42.656;23.374;2022-09-17T03:48:45;93598.25;;;23.45;69.24
10462;BME280;5278;42.656;23.374;2022-09-17T03:51:12;93595.50;;;23.55;68.88
10462;BME280;5278;42.656;23.374;2022-09-17T03:53:39;93604.06;;;23.42;69.33
10462;BME280;5278;42.656;23.374;2022-09-17T03:56:07;93588.28;;;23.27;69.96
10462;BME280;5278;42.656;23.374;2022-09-17T03:58:34;93605.81;;;23.23;69.92
10462;BME280;5278;42.656;23.374;2022-09-17T04:01:01;93620.38;;;23.25;70.34
10462;BME280;5278;42.656;23.374;2022-09-17T04:03:29;93628.56;;;23.29;70.17
10462;BME280;5278;42.656;23.374;2022-09-17T04:05:56;93630.63;;;23.37;70.04
10462;BME280;5278;42.656;23.374;2022-09-17T04:08:24;93625.28;;;23.42;69.55
10462;BME280;5278;42.656;23.374;2022-09-17T04:10:51;93630.06;;;23.40;69.33
10462;BME280;5278;42.656;23.374;2022-09-17T04:13:20;93641.81;;;23.29;69.94
10462;BME280;5278;42.656;23.374;2022-09-17T04:15:47;93644.66;;;23.37;69.67
10462;BME280;5278;42.656;23.374;2022-09-17T04:18:14;93646.47;;;23.42;70.12
10462;BME280;5278;42.656;23.374;2022-09-17T04:20:41;93643.69;;;23.62;68.96
10462;BME280;5278;42.656;23.374;2022-09-17T04:23:09;93659.03;;;23.70;68.22
10462;BME280;5278;42.656;23.374;2022-09-17T04:25:37;93687.69;;;23.68;68.74
10462;BME280;5278;42.656;23.374;2022-09-17T04:28:04;93717.31;;;23.80;68.37
10462;BME280;5278;42.656;23.374;2022-09-17T04:30:33;93708.78;;;23.83;68.11
10462;BME280;5278;42.656;23.374;2022-09-17T04:33:00;93736.69;;;23.81;68.22
10462;BME280;5278;42.656;23.374;2022-09-17T04:35:27;93724.66;;;23.88;68.19
10462;BME280;5278;42.656;23.374;2022-09-17T04:37:54;93724.16;;;23.81;69.28
10462;BME280;5278;42.656;23.374;2022-09-17T04:40:23;93744.06;;;23.84;69.92
10462;BME280;5278;42.656;23.374;2022-09-17T04:42:51;93745.56;;;23.95;70.85
10462;BME280;5278;42.656;23.374;2022-09-17T04:45:18;93763.84;;;23.96;69.84
10462;BME280;5278;42.656;23.374;2022-09-17T04:47:51;93768.63;;;23.99;69.10
10462;BME280;5278;42.656;23.374;2022-09-17T04:50:18;93781.38;;;23.97;69.98
10462;BME280;5278;42.656;23.374;2022-09-17T04:52:46;93793.09;;;23.91;69.54
10462;BME280;5278;42.656;23.374;2022-09-17T04:55:15;93790.00;;;23.79;69.67
10462;BME280;5278;42.656;23.374;2022-09-17T04:57:45;93795.34;;;23.74;69.87
10462;BME280;5278;42.656;23.374;2022-09-17T05:00:13;93799.56;;;23.80;70.56
10462;BME280;5278;42.656;23.374;2022-09-17T05:02:43;93801.16;;;23.76;69.74
10462;BME280;5278;42.656;23.374;2022-09-17T05:05:12;93789.28;;;23.69;70.28
10462;BME280;5278;42.656;23.374;2022-09-17T05:07:40;93789.50;;;23.77;70.42
10462;BME280;5278;42.656;23.374;2022-09-17T05:10:08;93790.31;;;23.73;70.52
10462;BME280;5278;42.656;23.374;2022-09-17T05:12:35;93793.25;;;23.71;70.46
10462;BME280;5278;42.656;23.374;2022-09-17T05:15:03;93784.97;;;23.78;70.77
10462;BME280;5278;42.656;23.374;2022-09-17T05:17:30;93783.13;;;23.78;70.76
10462;BME280;5278;42.656;23.374;2022-09-17T05:19:58;93785.97;;;23.87;70.68
10462;BME280;5278;42.656;23.374;2022-09-17T05:22:26;93773.41;;;23.97;70.13
10462;BME280;5278;42.656;23.374;2022-09-17T05:24:53;93755.84;;;24.01;70.64
10462;BME280;5278;42.656;23.374;2022-09-17T05:27:20;93744.13;;;24.08;70.16
10462;BME280;5278;42.656;23.374;2022-09-17T05:29:47;93733.16;;;24.19;70.26
10462;BME280;5278;42.656;23.374;2022-09-17T05:32:14;93747.03;;;24.06;70.63
10462;BME280;5278;42.656;23.374;2022-09-17T05:34:41;93747.38;;;23.99;71.03
10462;BME280;5278;42.656;23.374;2022-09-17T05:37:09;93750.72;;;23.81;71.33
10462;BME280;5278;42.656;23.374;2022-09-17T05:39:38;93758.03;;;23.66;71.87
10462;BME280;5278;42.656;23.374;2022-09-17T05:42:05;93768.78;;;23.79;72.46
10462;BME280;5278;42.656;23.374;2022-09-17T05:44:32;93771.00;;;23.67;71.65
10462;BME280;5278;42.656;23.374;2022-09-17T05:46:59;93766.47;;;23.24;73.13
10462;BME280;5278;42.656;23.374;2022-09-17T05:49:27;93770.56;;;23.01;73.98
10462;BME280;5278;42.656;23.374;2022-09-17T05:51:54;93783.28;;;22.99;74.27
10462;BME280;5278;42.656;23.374;2022-09-17T05:54:21;93790.97;;;23.05;74.47
10462;BME280;5278;42.656;23.374;2022-09-17T05:56:53;93770.91;;;22.84;75.08
10462;BME280;5278;42.656;23.374;2022-09-17T05:59:21;93771.44;;;22.81;75.12
10462;BME280;5278;42.656;23.374;2022-09-17T06:01:48;93771.94;;;22.88;75.00
10462;BME280;5278;42.656;23.374;2022-09-17T06:04:15;93762.63;;;23.01;74.29
10462;BME280;5278;42.656;23.374;2022-09-17T06:06:43;93755.88;;;23.24;73.17
10462;BME280;5278;42.656;23.374;2022-09-17T06:09:11;93750.56;;;23.24;72.36
10462;BME280;5278;42.656;23.374;2022-09-17T06:11:38;93767.41;;;23.48;71.58
10462;BME280;5278;42.656;23.374;2022-09-17T06:14:07;93772.75;;;23.38;72.16
10462;BME280;5278;42.656;23.374;2022-09-17T06:16:34;93772.81;;;23.28;72.51
10462;BME280;5278;42.656;23.374;2022-09-17T06:19:01;93784.53;;;23.16;73.02
10462;BME280;5278;42.656;23.374;2022-09-17T06:21:29;93780.84;;;23.07;73.47
10462;BME280;5278;42.656;23.374;2022-09-17T06:23:56;93806.31;;;23.08;73.50
10462;BME280;5278;42.656;23.374;2022-09-17T06:26:24;93833.00;;;23.22;73.32
10462;BME280;5278;42.656;23.374;2022-09-17T06:28:51;93843.56;;;23.32;72.95
10462;BME280;5278;42.656;23.374;2022-09-17T06:31:19;93847.00;;;23.38;72.35
10462;BME280;5278;42.656;23.374;2022-09-17T06:33:47;93848.50;;;23.59;71.50
10462;BME280;5278;42.656;23.374;2022-09-17T06:36:15;93848.72;;;23.68;70.84
10462;BME280;5278;42.656;23.374;2022-09-17T06:38:42;93853.91;;;23.88;70.29
10462;BME280;5278;42.656;23.374;2022-09-17T06:41:09;93855.19;;;23.95;69.69
10462;BME280;5278;42.656;23.374;2022-09-17T06:43:36;93866.06;;;23.94;70.29
10462;BME280;5278;42.656;23.374;2022-09-17T06:46:04;93863.63;;;24.02;69.77
10462;BME280;5278;42.656;23.374;2022-09-17T06:48:35;93839.94;;;24.11;69.59
10462;BME280;5278;42.656;23.374;2022-09-17T06:51:05;93813.09;;;24.13;68.96
10462;BME280;5278;42.656;23.374;2022-09-17T06:53:34;93815.66;;;24.28;68.67
10462;BME280;5278;42.656;23.374;2022-09-17T06:56:02;93822.47;;;24.39;68.77
10462;BME280;5278;42.656;23.374;2022-09-17T06:58:29;93824.47;;;24.52;67.84
10462;BME280;5278;42.656;23.374;2022-09-17T07:00:58;93811.59;;;24.64;67.85
10462;BME280;5278;42.656;23.374;2022-09-17T07:03:25;93809.69;;;24.70;67.42
10462;BME280;5278;42.656;23.374;2022-09-17T07:05:54;93799.13;;;24.65;67.40
10462;BME280;5278;42.656;23.374;2022-09-17T07:08:22;93776.09;;;24.55;67.29
10462;BME280;5278;42.656;23.374;2022-09-17T07:10:49;93772.81;;;24.63;67.68
10462;BME280;5278;42.656;23.374;2022-09-17T07:13:16;93775.47;;;24.63;68.52
10462;BME280;5278;42.656;23.374;2022-09-17T07:15:43;93727.59;;;24.44;67.69
10462;BME280;5278;42.656;23.374;2022-09-17T07:18:17;93746.72;;;24.70;68.25
10462;BME280;5278;42.656;23.374;2022-09-17T07:20:51;93731.56;;;24.95;67.98
10462;BME280;5278;42.656;23.374;2022-09-17T07:23:21;93726.31;;;25.27;65.68
10462;BME280;5278;42.656;23.374;2022-09-17T07:25:51;93717.69;;;25.73;63.89
10462;BME280;5278;42.656;23.374;2022-09-17T07:28:18;93728.25;;;25.78;63.93
10462;BME280;5278;42.656;23.374;2022-09-17T07:30:45;93732.66;;;26.01;63.34
10462;BME280;5278;42.656;23.374;2022-09-17T07:33:12;93738.59;;;26.71;61.39
10462;BME280;5278;42.656;23.374;2022-09-17T07:35:39;93727.94;;;27.48;58.54
10462;BME280;5278;42.656;23.374;2022-09-17T07:38:06;93724.41;;;27.97;57.19
10462;BME280;5278;42.656;23.374;2022-09-17T07:40:34;93735.53;;;28.13;55.86
10462;BME280;5278;42.656;23.374;2022-09-17T07:43:02;93716.22;;;28.47;55.69
10462;BME280;5278;42.656;23.374;2022-09-17T07:45:29;93720.50;;;28.96;54.21
10462;BME280;5278;42.656;23.374;2022-09-17T07:48:01;93723.72;;;28.36;54.03
10462;BME280;5278;42.656;23.374;2022-09-17T07:50:28;93727.44;;;28.04;55.42
10462;BME280;5278;42.656;23.374;2022-09-17T07:52:57;93726.47;;;27.78;56.29
10462;BME280;5278;42.656;23.374;2022-09-17T07:55:24;93723.56;;;27.16;58.11
10462;BME280;5278;42.656;23.374;2022-09-17T07:57:53;93722.31;;;26.73;59.89
10462;BME280;5278;42.656;23.374;2022-09-17T08:00:19;93712.13;;;26.47;60.20
10462;BME280;5278;42.656;23.374;2022-09-17T08:02:52;93707.84;;;26.19;61.60
10462;BME280;5278;42.656;23.374;2022-09-17T08:05:19;93715.78;;;26.24;61.54
10462;BME280;5278;42.656;23.374;2022-09-17T08:07:49;93718.13;;;26.26;61.36
10462;BME280;5278;42.656;23.374;2022-09-17T08:10:16;93716.97;;;26.32;61.16
10462;BME280;5278;42.656;23.374;2022-09-17T08:12:47;93706.88;;;26.15;61.39
10462;BME280;5278;42.656;23.374;2022-09-17T08:15:16;93700.09;;;26.23;61.57
10462;BME280;5278;42.656;23.374;2022-09-17T08:17:44;93705.03;;;26.29;61.20
10462;BME280;5278;42.656;23.374;2022-09-17T08:20:11;93697.50;;;26.31;61.12
10462;BME280;5278;42.656;23.374;2022-09-17T08:22:39;93691.81;;;26.51;59.84
10462;BME280;5278;42.656;23.374;2022-09-17T08:25:07;93693.16;;;26.76;59.65
10462;BME280;5278;42.656;23.374;2022-09-17T08:27:35;93695.44;;;26.96;58.57
10462;BME280;5278;42.656;23.374;2022-09-17T08:30:04;93693.53;;;27.24;57.59
10462;BME280;5278;42.656;23.374;2022-09-17T08:32:33;93681.72;;;27.39;56.70
10462;BME280;5278;42.656;23.374;2022-09-17T08:35:00;93694.34;;;27.47;56.25
10462;BME280;5278;42.656;23.374;2022-09-17T08:37:27;93693.09;;;27.67;56.01
10462;BME280;5278;42.656;23.374;2022-09-17T08:39:56;93687.25;;;27.65;54.90
10462;BME280;5278;42.656;23.374;2022-09-17T08:42:26;93685.75;;;27.50;56.11
10462;BME280;5278;42.656;23.374;2022-09-17T08:44:58;93688.13;;;27.52;55.75
10462;BME280;5278;42.656;23.374;2022-09-17T08:47:32;93677.59;;;27.55;55.59
10462;BME280;5278;42.656;23.374;2022-09-17T08:50:04;93676.09;;;27.63;55.35
10462;BME280;5278;42.656;23.374;2022-09-17T08:55:58;93686.53;;;27.51;55.18
10462;BME280;5278;42.656;23.374;2022-09-17T08:58:35;93698.63;;;27.34;56.09
10462;BME280;5278;42.656;23.374;2022-09-17T09:01:23;93692.56;;;27.07;57.11
10462;BME280;5278;42.656;23.374;2022-09-17T09:04:06;93684.78;;;26.83;57.96
10462;BME280;5278;42.656;23.374;2022-09-17T09:06:43;93687.34;;;26.61;58.42
10462;BME280;5278;42.656;23.374;2022-09-17T09:09:14;93696.66;;;26.49;58.92
10462;BME280;5278;42.656;23.374;2022-09-17T09:11:42;93693.69;;;26.37;59.30
10462;BME280;5278;42.656;23.374;2022-09-17T09:14:16;93701.84;;;26.27;59.66
10462;BME280;5278;42.656;23.374;2022-09-17T09:16:46;93704.28;;;26.10;60.37
10462;BME280;5278;42.656;23.374;2022-09-17T09:19:20;93712.19;;;25.83;61.55
10462;BME280;5278;42.656;23.374;2022-09-17T09:22:00;93705.84;;;25.65;62.01
10462;BME280;5278;42.656;23.374;2022-09-17T09:24:35;93720.84;;;25.56;62.94
10462;BME280;5278;42.656;23.374;2022-09-17T09:27:14;93719.44;;;25.45;63.42
10462;BME280;5278;42.656;23.374;2022-09-17T09:29:49;93741.50;;;25.45;63.77
10462;BME280;5278;42.656;23.374;2022-09-17T09:32:33;93730.00;;;25.50;63.56
10462;BME280;5278;42.656;23.374;2022-09-17T09:35:16;93742.41;;;25.36;64.38
10462;BME280;5278;42.656;23.374;2022-09-17T09:37:50;93754.38;;;25.38;63.99
10462;BME280;5278;42.656;23.374;2022-09-17T09:40:29;93757.31;;;25.37;64.40
10462;BME280;5278;42.656;23.374;2022-09-17T09:43:00;93763.69;;;25.36;64.29
10462;BME280;5278;42.656;23.374;2022-09-17T09:45:39;93768.66;;;25.42;64.34
10462;BME280;5278;42.656;23.374;2022-09-17T09:48:15;93765.53;;;25.40;64.75
10462;BME280;5278;42.656;23.374;2022-09-17T09:53:30;93768.47;;;25.39;65.22
10462;BME280;5278;42.656;23.374;2022-09-17T09:56:12;93777.22;;;25.39;65.06
10462;BME280;5278;42.656;23.374;2022-09-17T09:58:47;93789.94;;;25.42;65.96
10462;BME280;5278;42.656;23.374;2022-09-17T10:01:15;93791.53;;;25.43;65.95
10462;BME280;5278;42.656;23.374;2022-09-17T10:03:45;93787.81;;;25.44;66.79
10462;BME280;5278;42.656;23.374;2022-09-17T10:06:14;93774.56;;;25.39;67.02
10462;BME280;5278;42.656;23.374;2022-09-17T10:09:09;93758.53;;;25.25;67.71
10462;BME280;5278;42.656;23.374;2022-09-17T10:11:37;93707.78;;;24.79;70.65
10462;BME280;5278;42.656;23.374;2022-09-17T10:14:20;93702.44;;;23.79;75.39
10462;BME280;5278;42.656;23.374;2022-09-17T10:16:47;93707.72;;;23.50;77.42
10462;BME280;5278;42.656;23.374;2022-09-17T10:19:18;93701.34;;;23.51;77.14
10462;BME280;5278;42.656;23.374;2022-09-17T10:21:49;93692.47;;;23.66;76.30
10462;BME280;5278;42.656;23.374;2022-09-17T10:24:22;93682.28;;;23.78;75.51
10462;BME280;5278;42.656;23.374;2022-09-17T10:26:50;93651.41;;;23.58;75.67
10462;BME280;5278;42.656;23.374;2022-09-17T10:29:19;93658.44;;;23.73;76.05
10462;BME280;5278;42.656;23.374;2022-09-17T10:31:47;93646.31;;;23.96;75.13
10462;BME280;5278;42.656;23.374;2022-09-17T10:34:19;93649.19;;;23.99;74.39
10462;BME280;5278;42.656;23.374;2022-09-17T10:36:47;93661.47;;;23.90;74.89
10462;BME280;5278;42.656;23.374;2022-09-17T10:39:30;93670.09;;;23.77;75.31
10462;BME280;5278;42.656;23.374;2022-09-17T10:41:59;93660.16;;;23.59;76.12
10462;BME280;5278;42.656;23.374;2022-09-17T10:44:28;93645.47;;;23.38;77.79
10462;BME280;5278;42.656;23.374;2022-09-17T10:47:03;93624.63;;;22.87;80.58
10462;BME280;5278;42.656;23.374;2022-09-17T10:49:38;93629.25;;;22.66;82.17
10462;BME280;5278;42.656;23.374;2022-09-17T10:52:12;93625.03;;;22.60;82.55
10462;BME280;5278;42.656;23.374;2022-09-17T10:55:11;93604.75;;;22.41;82.92
10462;BME280;5278;42.656;23.374;2022-09-17T10:58:01;93585.59;;;22.00;83.92
10462;BME280;5278;42.656;23.374;2022-09-17T11:00:36;93587.22;;;21.96;85.33
10462;BME280;5278;42.656;23.374;2022-09-17T11:06:48;93577.78;;;22.78;80.40
10462;BME280;5278;42.656;23.374;2022-09-17T11:09:28;93594.63;;;23.31;78.29
10462;BME280;5278;42.656;23.374;2022-09-17T11:12:19;93611.56;;;23.92;75.67
10462;BME280;5278;42.656;23.374;2022-09-17T11:14:50;93627.78;;;24.38;73.26
10462;BME280;5278;42.656;23.374;2022-09-17T11:17:33;93627.25;;;24.79;71.16
10462;BME280;5278;42.656;23.374;2022-09-17T11:20:04;93623.13;;;25.10;71.11
10462;BME280;5278;42.656;23.374;2022-09-17T11:22:42;93609.13;;;25.37;67.32
10462;BME280;5278;42.656;23.374;2022-09-17T11:25:41;93599.03;;;25.53;66.39
10462;BME280;5278;42.656;23.374;2022-09-17T11:28:31;93617.81;;;25.43;68.27
10462;BME280;5278;42.656;23.374;2022-09-17T11:31:11;93643.31;;;25.30;71.58
10462;BME280;5278;42.656;23.374;2022-09-17T11:33:58;93655.94;;;25.01;73.19
10462;BME280;5278;42.656;23.374;2022-09-17T11:36:29;93640.63;;;24.74;74.86
10462;BME280;5278;42.656;23.374;2022-09-17T11:39:06;93650.97;;;24.33;76.34
10462;BME280;5278;42.656;23.374;2022-09-17T11:41:41;93643.97;;;23.89;77.89
10462;BME280;5278;42.656;23.374;2022-09-17T11:44:14;93659.16;;;23.84;78.36
10462;BME280;5278;42.656;23.374;2022-09-17T11:46:45;93647.53;;;23.80;78.58
10462;BME280;5278;42.656;23.374;2022-09-17T11:49:19;93641.00;;;23.67;79.10
10462;BME280;5278;42.656;23.374;2022-09-17T11:51:53;93654.97;;;23.44;79.70
10462;BME280;5278;42.656;23.374;2022-09-17T11:54:24;93634.34;;;23.36;80.03
10462;BME280;5278;42.656;23.374;2022-09-17T11:56:58;93633.91;;;23.24;80.10
10462;BME280;5278;42.656;23.374;2022-09-17T11:59:36;93629.78;;;23.07;79.38
10462;BME280;5278;42.656;23.374;2022-09-17T12:02:15;93621.38;;;23.00;79.63
10462;BME280;5278;42.656;23.374;2022-09-17T12:04:47;93612.13;;;22.93;80.39
10462;BME280;5278;42.656;23.374;2022-09-17T12:07:27;93602.03;;;22.51;80.40
10462;BME280;5278;42.656;23.374;2022-09-17T12:09:59;93624.44;;;22.68;81.57
10462;BME280;5278;42.656;23.374;2022-09-17T12:12:29;93617.28;;;22.69;80.88
10462;BME280;5278;42.656;23.374;2022-09-17T12:15:02;93624.47;;;22.63;80.92
10462;BME280;5278;42.656;23.374;2022-09-17T12:17:40;93639.31;;;22.64;82.09
10462;BME280;5278;42.656;23.374;2022-09-17T12:20:22;93626.88;;;22.60;81.65
10462;BME280;5278;42.656;23.374;2022-09-17T12:22:53;93626.81;;;22.70;81.36
10462;BME280;5278;42.656;23.374;2022-09-17T12:25:21;93609.66;;;22.57;81.43
10462;BME280;5278;42.656;23.374;2022-09-17T12:27:52;93624.44;;;22.68;81.62
10462;BME280;5278;42.656;23.374;2022-09-17T12:30:27;93607.31;;;22.56;82.67
10462;BME280;5278;42.656;23.374;2022-09-17T12:33:04;93611.06;;;22.50;83.45
10462;BME280;5278;42.656;23.374;2022-09-17T12:35:56;93623.31;;;22.36;85.71
10462;BME280;5278;42.656;23.374;2022-09-17T12:38:40;93611.56;;;22.52;81.76
10462;BME280;5278;42.656;23.374;2022-09-17T12:41:17;93608.75;;;22.82;80.38
10462;BME280;5278;42.656;23.374;2022-09-17T12:43:54;93612.84;;;23.03;80.13
10462;BME280;5278;42.656;23.374;2022-09-17T12:46:40;93595.72;;;23.25;78.46
10462;BME280;5278;42.656;23.374;2022-09-17T12:49:30;93577.09;;;23.35;78.34
10462;BME280;5278;42.656;23.374;2022-09-17T12:52:02;93568.66;;;23.56;78.33
10462;BME280;5278;42.656;23.374;2022-09-17T12:54:52;93583.41;;;23.91;76.52
10462;BME280;5278;42.656;23.374;2022-09-17T12:57:31;93581.56;;;24.16;74.93
10462;BME280;5278;42.656;23.374;2022-09-17T13:00:04;93576.88;;;24.31;73.83
10462;BME280;5278;42.656;23.374;2022-09-17T13:02:38;93579.06;;;24.48;73.66
10462;BME280;5278;42.656;23.374;2022-09-17T13:05:31;93579.03;;;24.29;74.46
10462;BME280;5278;42.656;23.374;2022-09-17T13:08:14;93571.72;;;24.16;74.68
10462;BME280;5278;42.656;23.374;2022-09-17T13:13:38;93562.75;;;24.12;76.26
10462;BME280;5278;42.656;23.374;2022-09-17T13:16:13;93560.94;;;24.08;76.07
10462;BME280;5278;42.656;23.374;2022-09-17T13:18:51;93571.19;;;23.95;76.47
10462;BME280;5278;42.656;23.374;2022-09-17T13:21:23;93569.88;;;24.17;74.73
10462;BME280;5278;42.656;23.374;2022-09-17T13:23:57;93571.06;;;24.29;71.36
10462;BME280;5278;42.656;23.374;2022-09-17T13:26:33;93558.72;;;24.20;73.19
10462;BME280;5278;42.656;23.374;2022-09-17T13:29:01;93563.38;;;24.28;72.79
10462;BME280;5278;42.656;23.374;2022-09-17T13:31:46;93539.41;;;24.33;72.94
10462;BME280;5278;42.656;23.374;2022-09-17T13:34:31;93535.53;;;24.44;72.16
10462;BME280;5278;42.656;23.374;2022-09-17T13:37:01;93526.59;;;24.40;72.11
10462;BME280;5278;42.656;23.374;2022-09-17T13:39:38;93520.25;;;24.36;71.87
10462;BME280;5278;42.656;23.374;2022-09-17T13:42:10;93522.09;;;24.17;72.26
10462;BME280;5278;42.656;23.374;2022-09-17T13:44:41;93505.19;;;24.08;72.58
10462;BME280;5278;42.656;23.374;2022-09-17T13:47:19;93503.41;;;24.03;72.84